sensor_id;sensor_type;location;lat;lon;timestamp;temperature;humidity
19974;DHT22;10148;47.694;9.442;2023-02-26T00:02:14;0.70;99.90
19974;DHT22;10148;47.694;9.442;2023-02-26T00:04:41;0.70;99.90
19974;DHT22;10148;47.694;9.442;2023-02-26T00:07:06;0.70;99.90
19974;DHT22;10148;47.694;9.442;2023-02-26T00:09:32;0.70;99.90
19974;DHT22;10148;47.694;9.442;2023-02-26T00:11:59;0.70;99.90
19974;DHT22;10148;47.694;9.442;2023-02-26T00:14:25;0.70;99.90
19974;DHT22;10148;47.694;9.442;2023-02-26T00:17:04;0.70;99.90
19974;DHT22;10148;47.694;9.442;2023-02-26T00:19:32;0.70;99.90
19974;DHT22;10148;47.694;9.442;2023-02-26T00:21:58;0.70;99.90
19974;DHT22;10148;47.694;9.442;2023-02-26T00:24:23;0.70;99.90
19974;DHT22;10148;47.694;9.442;2023-02-26T00:26:49;0.70;99.90
19974;DHT22;10148;47.694;9.442;2023-02-26T00:29:15;0.70;99.90
19974;DHT22;10148;47.694;9.442;2023-02-26T00:31:41;0.60;99.90
19974;DHT22;10148;47.694;9.442;2023-02-26T00:34:11;0.60;99.90
19974;DHT22;10148;47.694;9.442;2023-02-26T00:36:58;0.60;99.90
19974;DHT22;10148;47.694;9.442;2023-02-26T00:42:11;0.60;99.90
19974;DHT22;10148;47.694;9.442;2023-02-26T00:44:37;0.50;99.90
19974;DHT22;10148;47.694;9.442;2023-02-26T00:49:49;0.50;99.90
19974;DHT22;10148;47.694;9.442;2023-02-26T00:52:28;0.50;99.90
19974;DHT22;10148;47.694;9.442;2023-02-26T00:54:57;0.50;99.90
19974;DHT22;10148;47.694;9.442;2023-02-26T00:57:22;0.50;99.90
19974;DHT22;10148;47.694;9.442;2023-02-26T00:59:48;0.50;99.90
19974;DHT22;10148;47.694;9.442;2023-02-26T01:02:13;0.40;99.90
19974;DHT22;10148;47.694;9.442;2023-02-26T01:04:39;0.40;99.90
19974;DHT22;10148;47.694;9.442;2023-02-26T01:07:07;0.30;99.90
19974;DHT22;10148;47.694;9.442;2023-02-26T01:09:35;0.30;99.90
19974;DHT22;10148;47.694;9.442;2023-02-26T01:12:10;0.30;99.90
19974;DHT22;10148;47.694;9.442;2023-02-26T01:14:38;0.30;99.90
19974;DHT22;10148;47.694;9.442;2023-02-26T01:17:17;0.30;99.90
19974;DHT22;10148;47.694;9.442;2023-02-26T01:19:52;0.30;99.90
19974;DHT22;10148;47.694;9.442;2023-02-26T01:22:54;0.20;99.90
19974;DHT22;10148;47.694;9.442;2023-02-26T01:28:05;0.20;99.90
19974;DHT22;10148;47.694;9.442;2023-02-26T01:30:31;0.10;99.90
19974;DHT22;10148;47.694;9.442;2023-02-26T01:33:19;0.10;99.90
19974;DHT22;10148;47.694;9.442;2023-02-26T01:36:22;0.10;99.90
19974;DHT22;10148;47.694;9.442;2023-02-26T01:41:48;0.00;99.90
19974;DHT22;10148;47.694;9.442;2023-02-26T01:44:26;0.00;99.90
19974;DHT22;10148;47.694;9.442;2023-02-26T01:47:16;0.00;99.90
19974;DHT22;10148;47.694;9.442;2023-02-26T01:49:43;0.00;99.90
19974;DHT22;10148;47.694;9.442;2023-02-26T01:54:56;-0.10;99.90
19974;DHT22;10148;47.694;9.442;2023-02-26T01:57:22;-0.10;99.90
19974;DHT22;10148;47.694;9.442;2023-02-26T01:59:50;-0.10;99.90
19974;DHT22;10148;47.694;9.442;2023-02-26T02:02:21;-0.20;99.90
19974;DHT22;10148;47.694;9.442;2023-02-26T02:04:49;-0.20;99.90
19974;DHT22;10148;47.694;9.442;2023-02-26T02:07:15;-0.20;99.90
19974;DHT22;10148;47.694;9.442;2023-02-26T02:09:41;-0.20;99.90
19974;DHT22;10148;47.694;9.442;2023-02-26T02:12:40;-0.20;99.90
19974;DHT22;10148;47.694;9.442;2023-02-26T02:15:22;-0.20;99.90
19974;DHT22;10148;47.694;9.442;2023-02-26T02:24:09;-0.20;99.90
19974;DHT22;10148;47.694;9.442;2023-02-26T02:26:51;-0.20;99.90
19974;DHT22;10148;47.694;9.442;2023-02-26T02:32:14;-0.20;99.90
19974;DHT22;10148;47.694;9.442;2023-02-26T02:34:57;-0.20;99.90
19974;DHT22;10148;47.694;9.442;2023-02-26T02:37:30;-0.20;99.90
19974;DHT22;10148;47.694;9.442;2023-02-26T02:42:35;-0.30;99.90
19974;DHT22;10148;47.694;9.442;2023-02-26T02:48:02;-0.30;99.90
19974;DHT22;10148;47.694;9.442;2023-02-26T02:50:46;-0.30;99.90
19974;DHT22;10148;47.694;9.442;2023-02-26T02:53:29;-0.30;99.90
19974;DHT22;10148;47.694;9.442;2023-02-26T02:56:33;-0.20;99.90
19974;DHT22;10148;47.694;9.442;2023-02-26T02:59:55;-0.30;99.90
19974;DHT22;10148;47.694;9.442;2023-02-26T03:02:31;-0.30;99.90
19974;DHT22;10148;47.694;9.442;2023-02-26T03:04:58;-0.30;99.90
19974;DHT22;10148;47.694;9.442;2023-02-26T03:07:24;-0.30;99.90
19974;DHT22;10148;47.694;9.442;2023-02-26T03:09:49;-0.30;99.90
19974;DHT22;10148;47.694;9.442;2023-02-26T03:12:15;-0.30;99.90
19974;DHT22;10148;47.694;9.442;2023-02-26T03:14:41;-0.30;99.90
19974;DHT22;10148;47.694;9.442;2023-02-26T03:26:00;-0.40;99.90
19974;DHT22;10148;47.694;9.442;2023-02-26T03:31:21;-0.50;99.90
19974;DHT22;10148;47.694;9.442;2023-02-26T03:34:05;-0.60;99.90
19974;DHT22;10148;47.694;9.442;2023-02-26T03:39:36;-0.70;99.90
19974;DHT22;10148;47.694;9.442;2023-02-26T03:42:04;-0.70;99.90
19974;DHT22;10148;47.694;9.442;2023-02-26T03:44:54;-0.70;99.90
19974;DHT22;10148;47.694;9.442;2023-02-26T03:47:20;-0.80;99.90
19974;DHT22;10148;47.694;9.442;2023-02-26T03:49:57;-0.80;99.90
19974;DHT22;10148;47.694;9.442;2023-02-26T03:52:26;-0.80;99.90
19974;DHT22;10148;47.694;9.442;2023-02-26T03:55:03;-0.80;99.90
19974;DHT22;10148;47.694;9.442;2023-02-26T03:57:29;-0.80;99.90
19974;DHT22;10148;47.694;9.442;2023-02-26T03:59:55;-0.80;99.90
19974;DHT22;10148;47.694;9.442;2023-02-26T04:02:28;-0.70;99.90
19974;DHT22;10148;47.694;9.442;2023-02-26T04:05:14;-0.80;99.90
19974;DHT22;10148;47.694;9.442;2023-02-26T04:07:41;-0.70;99.90
19974;DHT22;10148;47.694;9.442;2023-02-26T04:10:10;-0.80;99.90
19974;DHT22;10148;47.694;9.442;2023-02-26T04:12:38;-0.80;99.90
19974;DHT22;10148;47.694;9.442;2023-02-26T04:15:04;-0.80;99.90
19974;DHT22;10148;47.694;9.442;2023-02-26T04:17:29;-0.80;99.90
19974;DHT22;10148;47.694;9.442;2023-02-26T04:19:55;-0.80;99.90
19974;DHT22;10148;47.694;9.442;2023-02-26T04:22:20;-0.80;99.90
19974;DHT22;10148;47.694;9.442;2023-02-26T04:24:46;-0.90;99.90
19974;DHT22;10148;47.694;9.442;2023-02-26T04:27:11;-0.90;99.90
19974;DHT22;10148;47.694;9.442;2023-02-26T04:29:37;-1.00;99.90
19974;DHT22;10148;47.694;9.442;2023-02-26T04:32:03;-1.00;99.90
19974;DHT22;10148;47.694;9.442;2023-02-26T04:34:29;-1.10;99.90
19974;DHT22;10148;47.694;9.442;2023-02-26T04:36:54;-1.10;99.90
19974;DHT22;10148;47.694;9.442;2023-02-26T04:39:20;-1.20;99.90
19974;DHT22;10148;47.694;9.442;2023-02-26T04:41:45;-1.20;99.90
19974;DHT22;10148;47.694;9.442;2023-02-26T04:44:11;-1.20;99.90
19974;DHT22;10148;47.694;9.442;2023-02-26T04:46:37;-1.20;99.90
19974;DHT22;10148;47.694;9.442;2023-02-26T04:49:02;-1.20;99.90
19974;DHT22;10148;47.694;9.442;2023-02-26T04:51:29;-1.20;99.90
19974;DHT22;10148;47.694;9.442;2023-02-26T04:53:55;-1.20;99.90
19974;DHT22;10148;47.694;9.442;2023-02-26T04:56:21;-1.20;99.90
19974;DHT22;10148;47.694;9.442;2023-02-26T04:58:46;-1.20;99.90
19974;DHT22;10148;47.694;9.442;2023-02-26T05:01:12;-1.20;99.90
19974;DHT22;10148;47.694;9.442;2023-02-26T05:03:38;-1.30;99.90
19974;DHT22;10148;47.694;9.442;2023-02-26T05:06:03;-1.30;99.90
19974;DHT22;10148;47.694;9.442;2023-02-26T05:08:29;-1.40;99.90
19974;DHT22;10148;47.694;9.442;2023-02-26T05:10:55;-1.50;99.90
19974;DHT22;10148;47.694;9.442;2023-02-26T05:13:20;-1.50;99.90
19974;DHT22;10148;47.694;9.442;2023-02-26T05:15:46;-1.60;99.90
19974;DHT22;10148;47.694;9.442;2023-02-26T05:18:12;-1.60;99.90
19974;DHT22;10148;47.694;9.442;2023-02-26T05:20:37;-1.60;99.90
19974;DHT22;10148;47.694;9.442;2023-02-26T05:23:03;-1.60;99.90
19974;DHT22;10148;47.694;9.442;2023-02-26T05:25:29;-1.60;99.90
19974;DHT22;10148;47.694;9.442;2023-02-26T05:27:54;-1.60;99.90
19974;DHT22;10148;47.694;9.442;2023-02-26T05:30:20;-1.70;99.90
19974;DHT22;10148;47.694;9.442;2023-02-26T05:32:46;-1.70;99.90
19974;DHT22;10148;47.694;9.442;2023-02-26T05:35:12;-1.80;99.90
19974;DHT22;10148;47.694;9.442;2023-02-26T05:37:38;-1.90;99.90
19974;DHT22;10148;47.694;9.442;2023-02-26T05:40:06;-1.90;99.90
19974;DHT22;10148;47.694;9.442;2023-02-26T05:42:33;-1.90;99.90
19974;DHT22;10148;47.694;9.442;2023-02-26T05:44:59;-1.90;99.90
19974;DHT22;10148;47.694;9.442;2023-02-26T05:47:24;-2.00;99.90
19974;DHT22;10148;47.694;9.442;2023-02-26T05:49:50;-2.00;99.90
19974;DHT22;10148;47.694;9.442;2023-02-26T05:52:15;-2.00;99.90
19974;DHT22;10148;47.694;9.442;2023-02-26T05:54:41;-2.10;99.90
19974;DHT22;10148;47.694;9.442;2023-02-26T05:57:06;-2.00;99.90
19974;DHT22;10148;47.694;9.442;2023-02-26T05:59:32;-2.00;99.90
19974;DHT22;10148;47.694;9.442;2023-02-26T06:01:57;-2.00;99.90
19974;DHT22;10148;47.694;9.442;2023-02-26T06:04:23;-2.00;99.90
19974;DHT22;10148;47.694;9.442;2023-02-26T06:06:48;-2.00;99.90
19974;DHT22;10148;47.694;9.442;2023-02-26T06:09:14;-2.00;99.90
19974;DHT22;10148;47.694;9.442;2023-02-26T06:11:39;-2.00;99.90
19974;DHT22;10148;47.694;9.442;2023-02-26T06:14:05;-2.00;99.90
19974;DHT22;10148;47.694;9.442;2023-02-26T06:16:31;-2.00;99.90
19974;DHT22;10148;47.694;9.442;2023-02-26T06:18:57;-2.00;99.90
19974;DHT22;10148;47.694;9.442;2023-02-26T06:21:22;-2.00;99.90
19974;DHT22;10148;47.694;9.442;2023-02-26T06:23:48;-2.00;99.90
19974;DHT22;10148;47.694;9.442;2023-02-26T06:26:13;-2.00;99.90
19974;DHT22;10148;47.694;9.442;2023-02-26T06:28:39;-2.00;99.90
19974;DHT22;10148;47.694;9.442;2023-02-26T06:31:04;-2.10;99.90
19974;DHT22;10148;47.694;9.442;2023-02-26T06:33:30;-2.00;99.90
19974;DHT22;10148;47.694;9.442;2023-02-26T06:35:56;-2.00;99.90
19974;DHT22;10148;47.694;9.442;2023-02-26T06:38:23;-2.10;99.90
19974;DHT22;10148;47.694;9.442;2023-02-26T06:40:49;-2.00;99.90
19974;DHT22;10148;47.694;9.442;2023-02-26T06:43:14;-2.10;99.90
19974;DHT22;10148;47.694;9.442;2023-02-26T06:45:40;-2.00;99.90
19974;DHT22;10148;47.694;9.442;2023-02-26T06:48:06;-2.10;99.90
19974;DHT22;10148;47.694;9.442;2023-02-26T06:50:31;-2.10;99.90
19974;DHT22;10148;47.694;9.442;2023-02-26T06:52:57;-2.10;99.90
19974;DHT22;10148;47.694;9.442;2023-02-26T06:55:22;-2.00;99.90
19974;DHT22;10148;47.694;9.442;2023-02-26T06:57:55;-2.00;99.90
19974;DHT22;10148;47.694;9.442;2023-02-26T07:00:21;-2.00;99.90
19974;DHT22;10148;47.694;9.442;2023-02-26T07:02:46;-2.00;99.90
19974;DHT22;10148;47.694;9.442;2023-02-26T07:05:12;-2.00;99.90
19974;DHT22;10148;47.694;9.442;2023-02-26T07:07:38;-2.00;99.90
19974;DHT22;10148;47.694;9.442;2023-02-26T07:10:04;-1.90;99.90
19974;DHT22;10148;47.694;9.442;2023-02-26T07:12:29;-1.90;99.90
19974;DHT22;10148;47.694;9.442;2023-02-26T07:14:55;-1.90;99.90
19974;DHT22;10148;47.694;9.442;2023-02-26T07:17:20;-1.90;99.90
19974;DHT22;10148;47.694;9.442;2023-02-26T07:19:47;-1.80;99.90
19974;DHT22;10148;47.694;9.442;2023-02-26T07:22:14;-1.80;99.90
19974;DHT22;10148;47.694;9.442;2023-02-26T07:24:40;-1.70;99.90
19974;DHT22;10148;47.694;9.442;2023-02-26T07:27:06;-1.70;99.90
19974;DHT22;10148;47.694;9.442;2023-02-26T07:29:32;-1.70;99.90
19974;DHT22;10148;47.694;9.442;2023-02-26T07:31:57;-1.70;99.90
19974;DHT22;10148;47.694;9.442;2023-02-26T07:34:23;-1.70;99.90
19974;DHT22;10148;47.694;9.442;2023-02-26T07:36:48;-1.80;99.90
19974;DHT22;10148;47.694;9.442;2023-02-26T07:39:14;-1.80;99.90
19974;DHT22;10148;47.694;9.442;2023-02-26T07:41:39;-1.80;99.90
19974;DHT22;10148;47.694;9.442;2023-02-26T07:44:05;-1.70;99.90
19974;DHT22;10148;47.694;9.442;2023-02-26T07:46:30;-1.70;99.90
19974;DHT22;10148;47.694;9.442;2023-02-26T07:48:56;-1.60;99.90
19974;DHT22;10148;47.694;9.442;2023-02-26T07:51:21;-1.60;99.90
19974;DHT22;10148;47.694;9.442;2023-02-26T07:53:47;-1.60;99.90
19974;DHT22;10148;47.694;9.442;2023-02-26T07:56:12;-1.60;99.90
19974;DHT22;10148;47.694;9.442;2023-02-26T07:58:38;-1.60;99.90
19974;DHT22;10148;47.694;9.442;2023-02-26T08:01:03;-1.60;99.90
19974;DHT22;10148;47.694;9.442;2023-02-26T08:03:29;-1.60;99.90
19974;DHT22;10148;47.694;9.442;2023-02-26T08:05:57;-1.50;99.90
19974;DHT22;10148;47.694;9.442;2023-02-26T08:08:25;-1.40;99.90
19974;DHT22;10148;47.694;9.442;2023-02-26T08:10:51;-1.30;99.90
19974;DHT22;10148;47.694;9.442;2023-02-26T08:13:16;-1.20;99.90
19974;DHT22;10148;47.694;9.442;2023-02-26T08:15:42;-1.20;99.90
19974;DHT22;10148;47.694;9.442;2023-02-26T08:18:08;-1.20;99.90
19974;DHT22;10148;47.694;9.442;2023-02-26T08:20:34;-1.30;99.90
19974;DHT22;10148;47.694;9.442;2023-02-26T08:23:00;-1.30;99.90
19974;DHT22;10148;47.694;9.442;2023-02-26T08:25:25;-1.20;99.90
19974;DHT22;10148;47.694;9.442;2023-02-26T08:27:51;-1.20;99.90
19974;DHT22;10148;47.694;9.442;2023-02-26T08:30:17;-1.20;99.90
19974;DHT22;10148;47.694;9.442;2023-02-26T08:32:43;-1.20;99.90
19974;DHT22;10148;47.694;9.442;2023-02-26T08:35:10;-1.20;99.90
19974;DHT22;10148;47.694;9.442;2023-02-26T08:37:36;-1.10;99.90
19974;DHT22;10148;47.694;9.442;2023-02-26T08:40:06;-1.00;99.90
19974;DHT22;10148;47.694;9.442;2023-02-26T08:42:32;-1.00;99.90
19974;DHT22;10148;47.694;9.442;2023-02-26T08:44:58;-1.00;99.90
19974;DHT22;10148;47.694;9.442;2023-02-26T08:47:24;-1.00;99.90
19974;DHT22;10148;47.694;9.442;2023-02-26T08:49:49;-1.00;99.90
19974;DHT22;10148;47.694;9.442;2023-02-26T08:52:15;-1.00;99.90
19974;DHT22;10148;47.694;9.442;2023-02-26T08:54:40;-1.10;99.90
19974;DHT22;10148;47.694;9.442;2023-02-26T08:57:06;-1.00;99.90
19974;DHT22;10148;47.694;9.442;2023-02-26T08:59:31;-0.90;99.90
19974;DHT22;10148;47.694;9.442;2023-02-26T09:01:57;-0.90;99.90
19974;DHT22;10148;47.694;9.442;2023-02-26T09:04:22;-0.80;99.90
19974;DHT22;10148;47.694;9.442;2023-02-26T09:06:48;-0.70;99.90
19974;DHT22;10148;47.694;9.442;2023-02-26T09:09:14;-0.60;99.90
19974;DHT22;10148;47.694;9.442;2023-02-26T09:11:39;-0.50;99.90
19974;DHT22;10148;47.694;9.442;2023-02-26T09:14:05;-0.40;99.90
19974;DHT22;10148;47.694;9.442;2023-02-26T09:16:31;-0.20;99.90
19974;DHT22;10148;47.694;9.442;2023-02-26T09:18:59;-0.20;99.90
19974;DHT22;10148;47.694;9.442;2023-02-26T09:21:25;-0.20;99.90
19974;DHT22;10148;47.694;9.442;2023-02-26T09:23:50;-0.40;99.90
19974;DHT22;10148;47.694;9.442;2023-02-26T09:26:16;-0.50;99.90
19974;DHT22;10148;47.694;9.442;2023-02-26T09:28:41;-0.50;99.90
19974;DHT22;10148;47.694;9.442;2023-02-26T09:31:07;-0.50;99.90
19974;DHT22;10148;47.694;9.442;2023-02-26T09:33:33;-0.50;99.90
19974;DHT22;10148;47.694;9.442;2023-02-26T09:35:58;-0.40;99.90
19974;DHT22;10148;47.694;9.442;2023-02-26T09:38:24;-0.30;99.90
19974;DHT22;10148;47.694;9.442;2023-02-26T09:40:53;-0.20;99.90
19974;DHT22;10148;47.694;9.442;2023-02-26T09:43:34;-0.10;99.90
19974;DHT22;10148;47.694;9.442;2023-02-26T09:49:46;0.10;99.90
19974;DHT22;10148;47.694;9.442;2023-02-26T09:51:50;0.10;99.90
19974;DHT22;10148;47.694;9.442;2023-02-26T09:54:29;0.10;99.90
19974;DHT22;10148;47.694;9.442;2023-02-26T09:56:59;0.10;99.90
19974;DHT22;10148;47.694;9.442;2023-02-26T09:59:27;0.00;99.90
19974;DHT22;10148;47.694;9.442;2023-02-26T10:02:03;0.00;99.90
19974;DHT22;10148;47.694;9.442;2023-02-26T10:04:48;0.10;99.90
19974;DHT22;10148;47.694;9.442;2023-02-26T10:07:37;0.20;99.90
19974;DHT22;10148;47.694;9.442;2023-02-26T10:10:14;0.40;99.90
19974;DHT22;10148;47.694;9.442;2023-02-26T10:12:43;0.40;99.90
19974;DHT22;10148;47.694;9.442;2023-02-26T10:15:16;0.60;99.90
19974;DHT22;10148;47.694;9.442;2023-02-26T10:18:10;0.60;99.90
19974;DHT22;10148;47.694;9.442;2023-02-26T10:21:03;0.80;99.90
19974;DHT22;10148;47.694;9.442;2023-02-26T10:23:41;0.90;99.90
19974;DHT22;10148;47.694;9.442;2023-02-26T10:26:25;1.00;99.90
19974;DHT22;10148;47.694;9.442;2023-02-26T10:29:26;1.00;99.90
19974;DHT22;10148;47.694;9.442;2023-02-26T10:34:35;0.90;99.90
19974;DHT22;10148;47.694;9.442;2023-02-26T10:42:51;0.70;99.90
19974;DHT22;10148;47.694;9.442;2023-02-26T10:50:47;0.30;99.90
19974;DHT22;10148;47.694;9.442;2023-02-26T10:53:13;0.30;99.90
19974;DHT22;10148;47.694;9.442;2023-02-26T10:55:47;0.30;99.90
19974;DHT22;10148;47.694;9.442;2023-02-26T10:58:17;0.40;99.90
19974;DHT22;10148;47.694;9.442;2023-02-26T11:00:47;0.40;99.90
19974;DHT22;10148;47.694;9.442;2023-02-26T11:03:31;0.50;99.90
19974;DHT22;10148;47.694;9.442;2023-02-26T11:05:57;0.70;99.90
19974;DHT22;10148;47.694;9.442;2023-02-26T11:08:26;0.70;99.90
19974;DHT22;10148;47.694;9.442;2023-02-26T11:10:55;0.70;99.90
19974;DHT22;10148;47.694;9.442;2023-02-26T11:13:26;0.70;99.90
19974;DHT22;10148;47.694;9.442;2023-02-26T11:15:55;0.80;99.90
19974;DHT22;10148;47.694;9.442;2023-02-26T11:18:26;0.90;99.90
19974;DHT22;10148;47.694;9.442;2023-02-26T11:20:55;1.20;99.90
19974;DHT22;10148;47.694;9.442;2023-02-26T11:23:25;1.60;99.90
19974;DHT22;10148;47.694;9.442;2023-02-26T11:25:56;1.80;99.90
19974;DHT22;10148;47.694;9.442;2023-02-26T11:28:41;1.90;99.90
19974;DHT22;10148;47.694;9.442;2023-02-26T11:31:09;2.00;99.90
19974;DHT22;10148;47.694;9.442;2023-02-26T11:33:42;1.90;99.90
19974;DHT22;10148;47.694;9.442;2023-02-26T11:36:17;2.00;99.90
19974;DHT22;10148;47.694;9.442;2023-02-26T11:38:52;1.80;99.90
19974;DHT22;10148;47.694;9.442;2023-02-26T11:41:19;1.80;99.90
19974;DHT22;10148;47.694;9.442;2023-02-26T11:43:47;1.80;99.90
19974;DHT22;10148;47.694;9.442;2023-02-26T11:46:13;1.70;99.90
19974;DHT22;10148;47.694;9.442;2023-02-26T11:48:44;1.70;99.90
19974;DHT22;10148;47.694;9.442;2023-02-26T11:51:18;1.60;99.90
19974;DHT22;10148;47.694;9.442;2023-02-26T11:53:52;1.50;99.90
19974;DHT22;10148;47.694;9.442;2023-02-26T11:56:26;1.60;99.90
19974;DHT22;10148;47.694;9.442;2023-02-26T11:58:54;1.50;99.90
19974;DHT22;10148;47.694;9.442;2023-02-26T12:01:26;1.40;99.90
19974;DHT22;10148;47.694;9.442;2023-02-26T12:03:52;1.40;99.90
19974;DHT22;10148;47.694;9.442;2023-02-26T12:06:22;1.40;99.90
19974;DHT22;10148;47.694;9.442;2023-02-26T12:08:49;1.20;99.90
19974;DHT22;10148;47.694;9.442;2023-02-26T12:14:07;1.00;99.90
19974;DHT22;10148;47.694;9.442;2023-02-26T12:16:39;1.10;99.90
19974;DHT22;10148;47.694;9.442;2023-02-26T12:24:44;1.30;99.90
19974;DHT22;10148;47.694;9.442;2023-02-26T12:30:32;1.10;99.90
19974;DHT22;10148;47.694;9.442;2023-02-26T12:35:58;1.00;99.90
19974;DHT22;10148;47.694;9.442;2023-02-26T12:43:48;1.20;99.90
19974;DHT22;10148;47.694;9.442;2023-02-26T12:46:34;1.20;99.90
19974;DHT22;10148;47.694;9.442;2023-02-26T12:49:18;1.20;99.90
19974;DHT22;10148;47.694;9.442;2023-02-26T12:51:59;1.60;99.90
19974;DHT22;10148;47.694;9.442;2023-02-26T12:54:41;2.70;99.90
19974;DHT22;10148;47.694;9.442;2023-02-26T13:08:39;1.50;99.90
19974;DHT22;10148;47.694;9.442;2023-02-26T13:16:38;1.70;99.90
19974;DHT22;10148;47.694;9.442;2023-02-26T13:22:05;2.60;99.90
19974;DHT22;10148;47.694;9.442;2023-02-26T13:24:37;2.40;99.90
19974;DHT22;10148;47.694;9.442;2023-02-26T13:27:05;2.50;99.90
19974;DHT22;10148;47.694;9.442;2023-02-26T13:29:40;2.70;99.90
19974;DHT22;10148;47.694;9.442;2023-02-26T13:32:18;2.90;99.90
19974;DHT22;10148;47.694;9.442;2023-02-26T13:34:57;3.00;99.90
19974;DHT22;10148;47.694;9.442;2023-02-26T13:37:37;2.80;99.90
19974;DHT22;10148;47.694;9.442;2023-02-26T13:59:04;1.70;99.90
19974;DHT22;10148;47.694;9.442;2023-02-26T14:01:35;1.90;99.90
19974;DHT22;10148;47.694;9.442;2023-02-26T14:06:57;2.60;99.90
19974;DHT22;10148;47.694;9.442;2023-02-26T14:19:40;3.40;99.90
19974;DHT22;10148;47.694;9.442;2023-02-26T14:25:11;3.40;99.90
19974;DHT22;10148;47.694;9.442;2023-02-26T14:27:39;3.60;99.90
19974;DHT22;10148;47.694;9.442;2023-02-26T14:32:52;4.10;99.90
19974;DHT22;10148;47.694;9.442;2023-02-26T14:35:27;4.40;99.90
19974;DHT22;10148;47.694;9.442;2023-02-26T14:38:05;4.20;99.90
19974;DHT22;10148;47.694;9.442;2023-02-26T14:40:39;4.50;99.90
19974;DHT22;10148;47.694;9.442;2023-02-26T14:43:18;4.10;99.90
19974;DHT22;10148;47.694;9.442;2023-02-26T14:45:44;4.10;99.90
19974;DHT22;10148;47.694;9.442;2023-02-26T14:48:16;4.00;99.90
19974;DHT22;10148;47.694;9.442;2023-02-26T14:51:20;4.10;99.90
19974;DHT22;10148;47.694;9.442;2023-02-26T14:54:06;3.80;99.90
19974;DHT22;10148;47.694;9.442;2023-02-26T14:59:50;3.60;99.90
19974;DHT22;10148;47.694;9.442;2023-02-26T15:02:36;3.40;99.90
19974;DHT22;10148;47.694;9.442;2023-02-26T15:08:10;2.90;99.90
19974;DHT22;10148;47.694;9.442;2023-02-26T15:15:58;2.80;99.90
19974;DHT22;10148;47.694;9.442;2023-02-26T15:23:48;3.20;99.90
19974;DHT22;10148;47.694;9.442;2023-02-26T15:26:48;3.10;99.90
19974;DHT22;10148;47.694;9.442;2023-02-26T15:29:14;2.70;99.90
19974;DHT22;10148;47.694;9.442;2023-02-26T15:35:17;2.60;99.90
19974;DHT22;10148;47.694;9.442;2023-02-26T15:37:48;2.40;99.90
19974;DHT22;10148;47.694;9.442;2023-02-26T15:40:15;2.20;99.90
19974;DHT22;10148;47.694;9.442;2023-02-26T15:42:42;2.00;99.90
19974;DHT22;10148;47.694;9.442;2023-02-26T15:47:58;1.70;99.90
19974;DHT22;10148;47.694;9.442;2023-02-26T15:50:30;1.70;99.90
19974;DHT22;10148;47.694;9.442;2023-02-26T15:53:01;1.60;99.90
19974;DHT22;10148;47.694;9.442;2023-02-26T15:55:32;1.40;99.90
19974;DHT22;10148;47.694;9.442;2023-02-26T15:57:59;1.10;99.90
19974;DHT22;10148;47.694;9.442;2023-02-26T16:00:25;1.00;99.90
19974;DHT22;10148;47.694;9.442;2023-02-26T16:02:54;0.90;99.90
19974;DHT22;10148;47.694;9.442;2023-02-26T16:05:22;0.70;99.90
19974;DHT22;10148;47.694;9.442;2023-02-26T16:07:49;0.60;99.90
19974;DHT22;10148;47.694;9.442;2023-02-26T16:10:25;0.60;99.90
19974;DHT22;10148;47.694;9.442;2023-02-26T16:12:51;0.60;99.90
19974;DHT22;10148;47.694;9.442;2023-02-26T16:15:28;0.70;99.90
19974;DHT22;10148;47.694;9.442;2023-02-26T16:17:56;0.70;99.90
19974;DHT22;10148;47.694;9.442;2023-02-26T16:20:25;0.80;99.90
19974;DHT22;10148;47.694;9.442;2023-02-26T16:23:02;0.80;99.90
19974;DHT22;10148;47.694;9.442;2023-02-26T16:25:38;0.90;99.90
19974;DHT22;10148;47.694;9.442;2023-02-26T16:28:05;0.90;99.90
19974;DHT22;10148;47.694;9.442;2023-02-26T16:30:36;1.00;99.90
19974;DHT22;10148;47.694;9.442;2023-02-26T16:33:04;1.00;99.90
19974;DHT22;10148;47.694;9.442;2023-02-26T16:35:37;1.00;99.90
19974;DHT22;10148;47.694;9.442;2023-02-26T16:38:42;0.90;99.90
19974;DHT22;10148;47.694;9.442;2023-02-26T16:41:09;0.80;99.90
19974;DHT22;10148;47.694;9.442;2023-02-26T16:46:19;0.80;99.90
19974;DHT22;10148;47.694;9.442;2023-02-26T16:49:02;0.70;99.90
19974;DHT22;10148;47.694;9.442;2023-02-26T16:51:31;0.60;99.90
19974;DHT22;10148;47.694;9.442;2023-02-26T16:54:01;0.60;99.90
19974;DHT22;10148;47.694;9.442;2023-02-26T16:56:37;0.60;99.90
19974;DHT22;10148;47.694;9.442;2023-02-26T17:01:53;0.50;99.90
19974;DHT22;10148;47.694;9.442;2023-02-26T17:04:23;0.30;99.90
19974;DHT22;10148;47.694;9.442;2023-02-26T17:06:51;0.30;99.90
19974;DHT22;10148;47.694;9.442;2023-02-26T17:09:40;0.30;99.90
19974;DHT22;10148;47.694;9.442;2023-02-26T17:12:22;0.30;99.90
19974;DHT22;10148;47.694;9.442;2023-02-26T17:14:59;0.20;99.90
19974;DHT22;10148;47.694;9.442;2023-02-26T17:17:25;0.20;99.90
19974;DHT22;10148;47.694;9.442;2023-02-26T17:19:51;0.20;99.90
19974;DHT22;10148;47.694;9.442;2023-02-26T17:22:23;0.20;99.90
19974;DHT22;10148;47.694;9.442;2023-02-26T17:24:50;0.20;99.90
19974;DHT22;10148;47.694;9.442;2023-02-26T17:27:32;0.20;99.90
19974;DHT22;10148;47.694;9.442;2023-02-26T17:29:59;0.20;99.90
19974;DHT22;10148;47.694;9.442;2023-02-26T17:32:26;0.30;99.90
19974;DHT22;10148;47.694;9.442;2023-02-26T17:34:53;0.30;99.90
19974;DHT22;10148;47.694;9.442;2023-02-26T17:37:19;0.40;99.90
19974;DHT22;10148;47.694;9.442;2023-02-26T17:39:46;0.40;99.90
19974;DHT22;10148;47.694;9.442;2023-02-26T17:42:14;0.40;99.90
19974;DHT22;10148;47.694;9.442;2023-02-26T17:44:40;0.40;99.90
19974;DHT22;10148;47.694;9.442;2023-02-26T17:47:11;0.40;99.90
19974;DHT22;10148;47.694;9.442;2023-02-26T17:49:38;0.40;99.90
19974;DHT22;10148;47.694;9.442;2023-02-26T17:52:04;0.30;99.90
19974;DHT22;10148;47.694;9.442;2023-02-26T17:54:29;0.30;99.90
19974;DHT22;10148;47.694;9.442;2023-02-26T17:56:55;0.30;99.90
19974;DHT22;10148;47.694;9.442;2023-02-26T17:59:21;0.30;99.90
19974;DHT22;10148;47.694;9.442;2023-02-26T18:01:46;0.30;99.90
19974;DHT22;10148;47.694;9.442;2023-02-26T18:04:12;0.20;99.90
19974;DHT22;10148;47.694;9.442;2023-02-26T18:06:37;0.20;99.90
19974;DHT22;10148;47.694;9.442;2023-02-26T18:09:04;0.10;99.90
19974;DHT22;10148;47.694;9.442;2023-02-26T18:11:30;0.10;99.90
19974;DHT22;10148;47.694;9.442;2023-02-26T18:13:56;0.00;99.90
19974;DHT22;10148;47.694;9.442;2023-02-26T18:16:30;0.00;99.90
19974;DHT22;10148;47.694;9.442;2023-02-26T18:18:58;0.00;99.90
19974;DHT22;10148;47.694;9.442;2023-02-26T18:21:24;-0.10;99.90
19974;DHT22;10148;47.694;9.442;2023-02-26T18:23:50;-0.20;99.90
19974;DHT22;10148;47.694;9.442;2023-02-26T18:26:18;-0.10;99.90
19974;DHT22;10148;47.694;9.442;2023-02-26T18:28:47;-0.20;99.90
19974;DHT22;10148;47.694;9.442;2023-02-26T18:31:14;-0.20;99.90
19974;DHT22;10148;47.694;9.442;2023-02-26T18:33:39;-0.20;99.90
19974;DHT22;10148;47.694;9.442;2023-02-26T18:36:12;-0.20;99.90
19974;DHT22;10148;47.694;9.442;2023-02-26T18:38:40;-0.20;99.90
19974;DHT22;10148;47.694;9.442;2023-02-26T18:41:06;-0.20;99.90
19974;DHT22;10148;47.694;9.442;2023-02-26T18:43:31;-0.20;99.90